createdAt,value
2023-05-02T03:42:41.287Z,100500.38
2023-05-02T03:45:48.651Z,100512.00
2023-05-02T03:48:51.583Z,100512.81
2023-05-02T03:51:54.629Z,100512.59
2023-05-02T03:54:57.978Z,100509.56
2023-05-02T03:58:01.073Z,100513.66
2023-05-02T04:01:03.880Z,100518.56
2023-05-02T04:04:07.146Z,100525.34
2023-05-02T04:07:15.750Z,100527.69
2023-05-02T04:10:19.015Z,100521.66
2023-05-02T04:13:22.480Z,100529.19
2023-05-02T04:16:25.993Z,100526.84
2023-05-02T04:19:28.553Z,100524.75
2023-05-02T04:22:32.114Z,100523.56
2023-05-02T04:25:35.145Z,100530.31
2023-05-02T04:28:38.301Z,100524.16
2023-05-02T04:31:41.367Z,100538.50
2023-05-02T04:34:44.796Z,100534.59
2023-05-02T04:37:48.202Z,100545.78
2023-05-02T04:40:54.873Z,100550.16
2023-05-02T04:43:58.587Z,100550.81
2023-05-02T04:47:01.483Z,100545.63
2023-05-02T04:50:04.438Z,100541.91
2023-05-02T04:53:07.568Z,100546.09
2023-05-02T04:56:11.434Z,100555.63
2023-05-02T04:59:14.627Z,100557.66
2023-05-02T05:02:17.507Z,100554.53
2023-05-02T05:05:21.034Z,100555.41
2023-05-02T05:08:23.804Z,100552.50
2023-05-02T05:11:26.761Z,100550.59
2023-05-02T05:14:31.360Z,100560.16
2023-05-02T05:17:34.605Z,100556.00
2023-05-02T05:20:38.825Z,100565.03
2023-05-02T05:23:46.124Z,100562.84
2023-05-02T05:26:49.432Z,100567.19
2023-05-02T05:29:52.419Z,100559.97
2023-05-02T05:32:55.312Z,100571.41
2023-05-02T05:36:04.556Z,100572.16
2023-05-02T05:39:07.535Z,100577.22
2023-05-02T05:42:11.183Z,100571.19
2023-05-02T05:45:14.965Z,100576.03
2023-05-02T05:48:18.196Z,100580.41
2023-05-02T05:51:21.179Z,100581.16
2023-05-02T05:54:24.793Z,100586.69
2023-05-02T05:57:27.535Z,100586.69
2023-05-02T06:00:31.205Z,100592.31
2023-05-02T06:03:34.220Z,100594.44
2023-05-02T06:06:37.457Z,100595.28
2023-05-02T06:09:41.373Z,100594.06
2023-05-02T06:12:46.130Z,100594.62
2023-05-02T06:15:51.101Z,100593.66
2023-05-02T06:18:53.957Z,100590.16
2023-05-02T06:21:56.777Z,100595.91
2023-05-02T06:24:59.440Z,100591.25
2023-05-02T06:28:02.382Z,100600.47
2023-05-02T06:31:06.251Z,100599.09
2023-05-02T06:34:09.269Z,100594.91
2023-05-02T06:37:12.058Z,100589.16
2023-05-02T06:40:15.137Z,100596.59
2023-05-02T06:43:18.457Z,100599.66
2023-05-02T06:46:21.544Z,100597.28
2023-05-02T06:49:24.352Z,100605.63
2023-05-02T06:52:27.471Z,100607.38
2023-05-02T06:55:30.502Z,100606.87
2023-05-02T06:58:35.653Z,100599.06
2023-05-02T07:01:38.450Z,100600.06
2023-05-02T07:04:41.743Z,100599.59
2023-05-02T07:07:45.292Z,100600.75
2023-05-02T07:10:48.332Z,100600.28
2023-05-02T07:13:51.277Z,100597.47
2023-05-02T07:16:54.107Z,100596.37
2023-05-02T07:19:56.671Z,100596.53
2023-05-02T07:22:59.738Z,100600.75
2023-05-02T07:26:03.864Z,100590.03
2023-05-02T07:29:09.769Z,100589.16
2023-05-02T07:32:12.675Z,100593.59
2023-05-02T07:35:15.796Z,100594.00
2023-05-02T07:38:18.414Z,100596.66
2023-05-02T07:41:21.225Z,100597.69
2023-05-02T07:44:24.344Z,100599.28
2023-05-02T07:47:27.585Z,100605.69
2023-05-02T07:50:30.540Z,100599.87
2023-05-02T07:53:34.263Z,100611.16
2023-05-02T07:56:36.890Z,100606.56
2023-05-02T07:59:39.925Z,100607.63
2023-05-02T08:02:42.940Z,100615.16
2023-05-02T08:05:50.343Z,100606.44
2023-05-02T08:08:53.083Z,100610.03
2023-05-02T08:11:56.096Z,100611.66
2023-05-02T08:14:58.832Z,100605.97
2023-05-02T08:18:01.745Z,100616.84
2023-05-02T08:21:04.626Z,100608.56
2023-05-02T08:24:07.656Z,100620.75
2023-05-02T08:27:10.113Z,100608.47
2023-05-02T08:30:13.484Z,100608.53
2023-05-02T08:33:16.419Z,100610.47
2023-05-02T08:36:19.855Z,100607.19
2023-05-02T08:39:22.457Z,100600.81
2023-05-02T08:42:26.971Z,100607.31
2023-05-02T08:45:41.747Z,100599.84
2023-05-02T08:48:50.235Z,100603.66
2023-05-02T08:51:55.485Z,100593.44
2023-05-02T08:55:02.272Z,100590.34
2023-05-02T08:58:06.476Z,100601.78
2023-05-02T09:01:16.040Z,100597.41
2023-05-02T09:04:23.946Z,100597.38
2023-05-02T09:07:27.960Z,100591.12
2023-05-02T09:10:31.510Z,100590.66
2023-05-02T09:13:46.257Z,100591.41
2023-05-02T09:16:48.951Z,100591.38
2023-05-02T09:20:01.107Z,100591.91
2023-05-02T09:23:03.918Z,100577.84
2023-05-02T09:26:17.451Z,100584.34
2023-05-02T09:29:20.793Z,100576.97
2023-05-02T09:32:47.315Z,100575.87
2023-05-02T09:35:54.641Z,100584.44
2023-05-02T09:39:11.289Z,100586.78
2023-05-02T09:42:32.793Z,100574.88
2023-05-02T09:45:35.742Z,100579.06
2023-05-02T09:48:57.446Z,100590.97
2023-05-02T09:52:11.666Z,100575.06
2023-05-02T09:55:22.247Z,100572.09
2023-05-02T09:58:25.831Z,100570.41
2023-05-02T10:01:28.653Z,100575.97
2023-05-02T10:04:33.901Z,100566.69
2023-05-02T10:07:37.482Z,100554.72
2023-05-02T10:10:46.002Z,100564.16
2023-05-02T10:13:48.998Z,100557.56
2023-05-02T10:17:00.212Z,100556.03
2023-05-02T10:20:07.665Z,100559.13
2023-05-02T10:23:14.223Z,100553.91
2023-05-02T10:26:17.414Z,100557.25
2023-05-02T10:29:21.218Z,100553.47
2023-05-02T10:32:27.647Z,100555.22
2023-05-02T10:35:32.102Z,100559.91
2023-05-02T10:38:36.976Z,100562.31
2023-05-02T10:41:41.681Z,100549.75
2023-05-02T10:44:45.174Z,100554.91
2023-05-02T10:47:48.632Z,100553.38
2023-05-02T10:50:54.000Z,100552.06
2023-05-02T10:54:16.852Z,100555.72
2023-05-02T10:57:20.605Z,100562.00
2023-05-02T11:00:29.474Z,100543.19
2023-05-02T11:04:02.300Z,100540.09
2023-05-02T11:07:05.470Z,100549.41
2023-05-02T11:10:17.257Z,100535.81
2023-05-02T11:13:49.641Z,100535.66
2023-05-02T11:17:01.602Z,100538.47
2023-05-02T11:20:08.650Z,100531.34
2023-05-02T11:23:18.274Z,100533.03
2023-05-02T11:26:26.067Z,100527.78
2023-05-02T11:29:54.397Z,100524.75
2023-05-02T11:32:59.342Z,100519.19
2023-05-02T11:36:02.820Z,100518.94
2023-05-02T11:39:19.510Z,100512.28
2023-05-02T11:42:30.099Z,100515.41
2023-05-02T11:45:36.979Z,100512.81
2023-05-02T11:48:41.746Z,100523.16
2023-05-02T11:51:44.812Z,100520.41
2023-05-02T11:54:47.977Z,100511.47
2023-05-02T11:57:51.622Z,100510.66
2023-05-02T12:00:54.255Z,100504.38
2023-05-02T12:04:08.519Z,100506.53
2023-05-02T12:07:12.305Z,100497.44
2023-05-02T12:10:16.207Z,100501.53
2023-05-02T12:13:21.265Z,100492.97
2023-05-02T12:16:24.387Z,100495.84
2023-05-02T12:19:27.651Z,100487.31
2023-05-02T12:22:31.440Z,100489.16
2023-05-02T12:25:41.891Z,100482.50
2023-05-02T12:28:50.242Z,100493.38
2023-05-02T12:31:53.143Z,100490.59
2023-05-02T12:34:56.354Z,100492.62
2023-05-02T12:38:16.877Z,100485.09
2023-05-02T12:41:31.468Z,100482.84
2023-05-02T12:44:38.898Z,100476.28
2023-05-02T12:47:48.656Z,100481.00
2023-05-02T12:50:52.516Z,100481.84
2023-05-02T12:53:55.379Z,100468.09
2023-05-02T12:56:58.070Z,100471.81
2023-05-02T13:00:01.327Z,100470.41
2023-05-02T13:03:04.885Z,100476.31
2023-05-02T13:06:08.266Z,100468.97
2023-05-02T13:09:10.930Z,100450.69
2023-05-02T13:12:14.081Z,100457.53
2023-05-02T13:15:16.847Z,100459.50
2023-05-02T13:18:20.418Z,100456.53
2023-05-02T13:21:23.309Z,100453.91
2023-05-02T13:24:26.314Z,100454.34
2023-05-02T13:27:28.967Z,100446.13
2023-05-02T13:30:32.059Z,100448.47
2023-05-02T13:33:34.674Z,100447.94
2023-05-02T13:36:44.121Z,100453.31
2023-05-02T13:39:47.144Z,100438.16
2023-05-02T13:42:50.322Z,100442.78
2023-05-02T13:45:53.362Z,100438.47
2023-05-02T13:48:56.219Z,100444.91
2023-05-02T13:51:59.501Z,100441.72
2023-05-02T13:55:02.748Z,100440.75
2023-05-02T13:58:05.906Z,100454.53
2023-05-02T14:01:09.113Z,100439.47
2023-05-02T14:04:12.538Z,100443.31
2023-05-02T14:07:15.265Z,100445.53
2023-05-02T14:10:18.135Z,100436.28
2023-05-02T14:13:21.155Z,100432.94
2023-05-02T14:19:27.138Z,100443.03
2023-05-02T14:22:29.975Z,100437.16
2023-05-02T14:25:32.489Z,100436.97
2023-05-02T14:28:36.308Z,100433.59
2023-05-02T14:31:49.045Z,100445.53
2023-05-02T14:34:52.026Z,100442.66
2023-05-02T14:37:54.569Z,100435.56
2023-05-02T14:40:57.432Z,100438.78
2023-05-02T14:43:59.955Z,100442.16
2023-05-02T14:47:03.335Z,100441.13
2023-05-02T14:50:06.841Z,100436.84
2023-05-02T14:53:09.942Z,100439.84
2023-05-02T14:56:14.783Z,100447.09
2023-05-02T14:59:18.448Z,100432.91
2023-05-02T15:02:21.916Z,100438.47
2023-05-02T15:05:24.926Z,100452.66
2023-05-02T15:08:27.482Z,100433.63
2023-05-02T15:11:30.810Z,100437.28
2023-05-02T15:14:33.861Z,100442.62
2023-05-02T15:17:36.725Z,100447.63
2023-05-02T15:20:39.219Z,100453.00
2023-05-02T15:23:42.401Z,100442.88
